sensor_id;sensor_type;location;lat;lon;timestamp;P1;durP1;ratioP1;P2;durP2;ratioP2
3359;SDS011;1693;49.602;11.046;2023-02-01T00:00:52;7.90;;;5.50;;
3359;SDS011;1693;49.602;11.046;2023-02-01T00:03:20;8.20;;;5.63;;
3359;SDS011;1693;49.602;11.046;2023-02-01T00:05:54;6.07;;;5.40;;
3359;SDS011;1693;49.602;11.046;2023-02-01T00:08:23;5.83;;;5.23;;
3359;SDS011;1693;49.602;11.046;2023-02-01T00:10:59;7.80;;;6.40;;
3359;SDS011;1693;49.602;11.046;2023-02-01T00:13:28;6.37;;;5.40;;
3359;SDS011;1693;49.602;11.046;2023-02-01T00:16:02;9.00;;;6.53;;
3359;SDS011;1693;49.602;11.046;2023-02-01T00:18:33;9.00;;;6.40;;
3359;SDS011;1693;49.602;11.046;2023-02-01T00:21:01;6.37;;;5.40;;
3359;SDS011;1693;49.602;11.046;2023-02-01T00:23:31;9.90;;;6.70;;
3359;SDS011;1693;49.602;11.046;2023-02-01T00:26:01;11.10;;;7.10;;
3359;SDS011;1693;49.602;11.046;2023-02-01T00:28:30;8.30;;;7.03;;
3359;SDS011;1693;49.602;11.046;2023-02-01T00:30:57;9.90;;;7.63;;
3359;SDS011;1693;49.602;11.046;2023-02-01T00:33:26;10.37;;;7.27;;
3359;SDS011;1693;49.602;11.046;2023-02-01T00:35:56;12.40;;;7.13;;
3359;SDS011;1693;49.602;11.046;2023-02-01T00:38:25;8.73;;;7.67;;
3359;SDS011;1693;49.602;11.046;2023-02-01T00:40:53;9.47;;;7.20;;
3359;SDS011;1693;49.602;11.046;2023-02-01T00:43:21;9.97;;;7.63;;
3359;SDS011;1693;49.602;11.046;2023-02-01T00:45:48;9.53;;;7.90;;
3359;SDS011;1693;49.602;11.046;2023-02-01T00:48:17;14.07;;;7.77;;
3359;SDS011;1693;49.602;11.046;2023-02-01T00:50:45;9.40;;;7.70;;
3359;SDS011;1693;49.602;11.046;2023-02-01T00:53:14;7.70;;;6.90;;
3359;SDS011;1693;49.602;11.046;2023-02-01T00:55:44;8.97;;;7.20;;
3359;SDS011;1693;49.602;11.046;2023-02-01T00:58:11;8.93;;;7.67;;
3359;SDS011;1693;49.602;11.046;2023-02-01T01:00:42;9.30;;;7.50;;
3359;SDS011;1693;49.602;11.046;2023-02-01T01:03:09;7.27;;;6.57;;
3359;SDS011;1693;49.602;11.046;2023-02-01T01:05:44;10.73;;;7.07;;
3359;SDS011;1693;49.602;11.046;2023-02-01T01:08:13;7.47;;;6.30;;
3359;SDS011;1693;49.602;11.046;2023-02-01T01:10:43;6.20;;;5.60;;
3359;SDS011;1693;49.602;11.046;2023-02-01T01:13:10;6.30;;;5.50;;
3359;SDS011;1693;49.602;11.046;2023-02-01T01:15:38;6.00;;;4.90;;
3359;SDS011;1693;49.602;11.046;2023-02-01T01:18:07;6.17;;;5.60;;
3359;SDS011;1693;49.602;11.046;2023-02-01T01:20:36;5.27;;;4.77;;
3359;SDS011;1693;49.602;11.046;2023-02-01T01:23:07;5.57;;;4.70;;
3359;SDS011;1693;49.602;11.046;2023-02-01T01:25:38;6.17;;;4.97;;
3359;SDS011;1693;49.602;11.046;2023-02-01T01:28:06;11.23;;;4.07;;
3359;SDS011;1693;49.602;11.046;2023-02-01T01:30:33;4.20;;;3.67;;
3359;SDS011;1693;49.602;11.046;2023-02-01T01:33:02;4.70;;;4.27;;
3359;SDS011;1693;49.602;11.046;2023-02-01T01:35:31;5.17;;;4.67;;
3359;SDS011;1693;49.602;11.046;2023-02-01T01:38:00;6.90;;;5.10;;
3359;SDS011;1693;49.602;11.046;2023-02-01T01:40:29;5.33;;;4.77;;
3359;SDS011;1693;49.602;11.046;2023-02-01T01:42:58;11.93;;;5.47;;
3359;SDS011;1693;49.602;11.046;2023-02-01T01:45:27;8.10;;;5.60;;
3359;SDS011;1693;49.602;11.046;2023-02-01T01:47:57;6.90;;;5.07;;
3359;SDS011;1693;49.602;11.046;2023-02-01T01:50:29;6.37;;;5.70;;
3359;SDS011;1693;49.602;11.046;2023-02-01T01:53:00;8.50;;;5.90;;
3359;SDS011;1693;49.602;11.046;2023-02-01T01:55:30;6.80;;;5.70;;
3359;SDS011;1693;49.602;11.046;2023-02-01T01:58:03;7.00;;;6.30;;
3359;SDS011;1693;49.602;11.046;2023-02-01T02:00:35;6.63;;;5.73;;
3359;SDS011;1693;49.602;11.046;2023-02-01T02:03:05;6.60;;;5.57;;
3359;SDS011;1693;49.602;11.046;2023-02-01T02:05:40;5.77;;;5.27;;
3359;SDS011;1693;49.602;11.046;2023-02-01T02:08:08;8.10;;;6.17;;
3359;SDS011;1693;49.602;11.046;2023-02-01T02:10:38;6.73;;;6.03;;
3359;SDS011;1693;49.602;11.046;2023-02-01T02:13:23;7.20;;;5.90;;
3359;SDS011;1693;49.602;11.046;2023-02-01T02:15:55;7.03;;;5.43;;
3359;SDS011;1693;49.602;11.046;2023-02-01T02:18:32;6.47;;;5.80;;
3359;SDS011;1693;49.602;11.046;2023-02-01T02:21:23;6.00;;;5.50;;
3359;SDS011;1693;49.602;11.046;2023-02-01T02:27:22;5.63;;;4.83;;
3359;SDS011;1693;49.602;11.046;2023-02-01T02:30:02;7.67;;;5.80;;
3359;SDS011;1693;49.602;11.046;2023-02-01T02:33:01;6.10;;;5.27;;
3359;SDS011;1693;49.602;11.046;2023-02-01T02:35:46;7.30;;;5.30;;
3359;SDS011;1693;49.602;11.046;2023-02-01T02:38:23;6.43;;;5.70;;
3359;SDS011;1693;49.602;11.046;2023-02-01T02:41:01;5.90;;;5.40;;
3359;SDS011;1693;49.602;11.046;2023-02-01T02:44:04;6.17;;;5.23;;
3359;SDS011;1693;49.602;11.046;2023-02-01T02:46:57;8.80;;;6.00;;
3359;SDS011;1693;49.602;11.046;2023-02-01T02:49:54;6.93;;;6.10;;
3359;SDS011;1693;49.602;11.046;2023-02-01T02:52:47;6.10;;;5.27;;
3359;SDS011;1693;49.602;11.046;2023-02-01T02:55:42;7.77;;;6.00;;
3359;SDS011;1693;49.602;11.046;2023-02-01T02:58:11;7.77;;;6.00;;
3359;SDS011;1693;49.602;11.046;2023-02-01T03:01:00;7.37;;;6.63;;
3359;SDS011;1693;49.602;11.046;2023-02-01T03:03:46;7.33;;;5.37;;
3359;SDS011;1693;49.602;11.046;2023-02-01T03:06:35;7.40;;;5.20;;
3359;SDS011;1693;49.602;11.046;2023-02-01T03:09:12;7.67;;;5.50;;
3359;SDS011;1693;49.602;11.046;2023-02-01T03:11:44;5.87;;;5.37;;
3359;SDS011;1693;49.602;11.046;2023-02-01T03:14:34;6.90;;;5.37;;
3359;SDS011;1693;49.602;11.046;2023-02-01T03:17:05;5.53;;;5.00;;
3359;SDS011;1693;49.602;11.046;2023-02-01T03:19:37;6.67;;;5.37;;
3359;SDS011;1693;49.602;11.046;2023-02-01T03:22:10;6.33;;;5.40;;
3359;SDS011;1693;49.602;11.046;2023-02-01T03:24:44;7.00;;;4.70;;
3359;SDS011;1693;49.602;11.046;2023-02-01T03:27:16;4.37;;;3.97;;
3359;SDS011;1693;49.602;11.046;2023-02-01T03:29:48;6.00;;;4.70;;
3359;SDS011;1693;49.602;11.046;2023-02-01T03:32:20;6.23;;;4.67;;
3359;SDS011;1693;49.602;11.046;2023-02-01T03:34:49;4.90;;;4.43;;
3359;SDS011;1693;49.602;11.046;2023-02-01T03:37:23;5.27;;;4.73;;
3359;SDS011;1693;49.602;11.046;2023-02-01T03:39:56;5.07;;;4.10;;
3359;SDS011;1693;49.602;11.046;2023-02-01T03:42:28;9.23;;;4.60;;
3359;SDS011;1693;49.602;11.046;2023-02-01T03:45:03;5.77;;;5.17;;
3359;SDS011;1693;49.602;11.046;2023-02-01T03:47:39;4.60;;;3.93;;
3359;SDS011;1693;49.602;11.046;2023-02-01T03:50:12;6.27;;;5.67;;
3359;SDS011;1693;49.602;11.046;2023-02-01T03:52:45;6.23;;;4.60;;
3359;SDS011;1693;49.602;11.046;2023-02-01T03:55:19;7.03;;;6.30;;
3359;SDS011;1693;49.602;11.046;2023-02-01T03:57:51;7.00;;;5.97;;
3359;SDS011;1693;49.602;11.046;2023-02-01T04:00:22;7.83;;;6.03;;
3359;SDS011;1693;49.602;11.046;2023-02-01T04:02:58;5.70;;;5.10;;
3359;SDS011;1693;49.602;11.046;2023-02-01T04:05:26;7.40;;;5.97;;
3359;SDS011;1693;49.602;11.046;2023-02-01T04:07:54;9.23;;;5.13;;
3359;SDS011;1693;49.602;11.046;2023-02-01T04:10:23;10.37;;;6.27;;
3359;SDS011;1693;49.602;11.046;2023-02-01T04:12:51;9.20;;;7.03;;
3359;SDS011;1693;49.602;11.046;2023-02-01T04:15:22;9.60;;;6.63;;
3359;SDS011;1693;49.602;11.046;2023-02-01T04:17:50;7.60;;;6.13;;
3359;SDS011;1693;49.602;11.046;2023-02-01T04:20:18;10.83;;;7.00;;
3359;SDS011;1693;49.602;11.046;2023-02-01T04:22:46;8.10;;;7.30;;
3359;SDS011;1693;49.602;11.046;2023-02-01T04:25:15;7.57;;;6.73;;
3359;SDS011;1693;49.602;11.046;2023-02-01T04:27:43;9.77;;;7.90;;
3359;SDS011;1693;49.602;11.046;2023-02-01T04:30:12;9.03;;;8.13;;
3359;SDS011;1693;49.602;11.046;2023-02-01T04:32:40;9.00;;;7.27;;
3359;SDS011;1693;49.602;11.046;2023-02-01T04:35:08;12.70;;;7.50;;
3359;SDS011;1693;49.602;11.046;2023-02-01T04:37:36;8.77;;;7.40;;
3359;SDS011;1693;49.602;11.046;2023-02-01T04:40:04;8.87;;;7.97;;
3359;SDS011;1693;49.602;11.046;2023-02-01T04:42:34;13.67;;;8.87;;
3359;SDS011;1693;49.602;11.046;2023-02-01T04:45:06;8.60;;;7.07;;
3359;SDS011;1693;49.602;11.046;2023-02-01T04:47:34;8.23;;;7.33;;
3359;SDS011;1693;49.602;11.046;2023-02-01T04:50:04;9.90;;;7.90;;
3359;SDS011;1693;49.602;11.046;2023-02-01T04:52:35;8.33;;;7.07;;
3359;SDS011;1693;49.602;11.046;2023-02-01T04:55:02;8.03;;;6.90;;
3359;SDS011;1693;49.602;11.046;2023-02-01T04:57:31;8.83;;;7.40;;
3359;SDS011;1693;49.602;11.046;2023-02-01T05:00:01;9.07;;;7.27;;
3359;SDS011;1693;49.602;11.046;2023-02-01T05:02:30;7.90;;;6.80;;
3359;SDS011;1693;49.602;11.046;2023-02-01T05:04:57;9.23;;;7.73;;
3359;SDS011;1693;49.602;11.046;2023-02-01T05:07:25;8.33;;;7.53;;
3359;SDS011;1693;49.602;11.046;2023-02-01T05:09:52;8.13;;;7.33;;
3359;SDS011;1693;49.602;11.046;2023-02-01T05:12:20;9.10;;;7.37;;
3359;SDS011;1693;49.602;11.046;2023-02-01T05:15:08;8.50;;;7.50;;
3359;SDS011;1693;49.602;11.046;2023-02-01T05:17:36;11.00;;;7.73;;
3359;SDS011;1693;49.602;11.046;2023-02-01T05:20:07;9.50;;;7.97;;
3359;SDS011;1693;49.602;11.046;2023-02-01T05:22:37;11.90;;;7.47;;
3359;SDS011;1693;49.602;11.046;2023-02-01T05:25:09;7.90;;;7.17;;
3359;SDS011;1693;49.602;11.046;2023-02-01T05:27:37;9.33;;;7.30;;
3359;SDS011;1693;49.602;11.046;2023-02-01T05:30:05;8.50;;;6.67;;
3359;SDS011;1693;49.602;11.046;2023-02-01T05:32:41;7.43;;;6.20;;
3359;SDS011;1693;49.602;11.046;2023-02-01T05:35:08;9.00;;;6.97;;
3359;SDS011;1693;49.602;11.046;2023-02-01T05:37:39;6.23;;;5.63;;
3359;SDS011;1693;49.602;11.046;2023-02-01T05:40:10;7.90;;;5.40;;
3359;SDS011;1693;49.602;11.046;2023-02-01T05:42:40;8.10;;;7.20;;
3359;SDS011;1693;49.602;11.046;2023-02-01T05:45:09;8.03;;;4.60;;
3359;SDS011;1693;49.602;11.046;2023-02-01T05:47:38;5.90;;;3.40;;
3359;SDS011;1693;49.602;11.046;2023-02-01T05:50:07;10.00;;;3.90;;
3359;SDS011;1693;49.602;11.046;2023-02-01T05:52:36;2.87;;;2.57;;
3359;SDS011;1693;49.602;11.046;2023-02-01T05:55:04;6.17;;;3.77;;
3359;SDS011;1693;49.602;11.046;2023-02-01T05:57:32;6.60;;;3.70;;
3359;SDS011;1693;49.602;11.046;2023-02-01T06:00:01;4.10;;;2.90;;
3359;SDS011;1693;49.602;11.046;2023-02-01T06:02:31;5.20;;;2.00;;
3359;SDS011;1693;49.602;11.046;2023-02-01T06:05:02;6.43;;;2.67;;
3359;SDS011;1693;49.602;11.046;2023-02-01T06:07:31;6.70;;;2.20;;
3359;SDS011;1693;49.602;11.046;2023-02-01T06:09:59;5.90;;;2.80;;
3359;SDS011;1693;49.602;11.046;2023-02-01T06:12:26;4.27;;;2.40;;
3359;SDS011;1693;49.602;11.046;2023-02-01T06:14:54;4.43;;;2.30;;
3359;SDS011;1693;49.602;11.046;2023-02-01T06:17:22;4.53;;;1.90;;
3359;SDS011;1693;49.602;11.046;2023-02-01T06:19:51;6.73;;;2.43;;
3359;SDS011;1693;49.602;11.046;2023-02-01T06:22:20;6.97;;;3.13;;
3359;SDS011;1693;49.602;11.046;2023-02-01T06:24:49;4.40;;;2.30;;
3359;SDS011;1693;49.602;11.046;2023-02-01T06:27:16;4.07;;;2.03;;
3359;SDS011;1693;49.602;11.046;2023-02-01T06:29:45;3.53;;;2.43;;
3359;SDS011;1693;49.602;11.046;2023-02-01T06:32:12;4.40;;;2.87;;
3359;SDS011;1693;49.602;11.046;2023-02-01T06:34:43;6.20;;;3.20;;
3359;SDS011;1693;49.602;11.046;2023-02-01T06:37:13;3.40;;;2.57;;
3359;SDS011;1693;49.602;11.046;2023-02-01T06:39:41;3.00;;;2.43;;
3359;SDS011;1693;49.602;11.046;2023-02-01T06:42:08;2.47;;;2.10;;
3359;SDS011;1693;49.602;11.046;2023-02-01T06:44:37;1.93;;;1.73;;
3359;SDS011;1693;49.602;11.046;2023-02-01T06:47:04;2.43;;;1.97;;
3359;SDS011;1693;49.602;11.046;2023-02-01T06:49:33;2.73;;;2.20;;
3359;SDS011;1693;49.602;11.046;2023-02-01T06:52:01;2.07;;;1.73;;
3359;SDS011;1693;49.602;11.046;2023-02-01T06:54:30;2.90;;;2.00;;
3359;SDS011;1693;49.602;11.046;2023-02-01T06:56:59;2.20;;;1.50;;
3359;SDS011;1693;49.602;11.046;2023-02-01T06:59:27;3.17;;;2.07;;
3359;SDS011;1693;49.602;11.046;2023-02-01T07:01:54;3.40;;;1.70;;
3359;SDS011;1693;49.602;11.046;2023-02-01T07:04:22;2.50;;;1.70;;
3359;SDS011;1693;49.602;11.046;2023-02-01T07:06:50;2.33;;;1.80;;
3359;SDS011;1693;49.602;11.046;2023-02-01T07:09:19;2.47;;;1.63;;
3359;SDS011;1693;49.602;11.046;2023-02-01T07:11:49;3.10;;;2.13;;
3359;SDS011;1693;49.602;11.046;2023-02-01T07:14:16;3.90;;;2.60;;
3359;SDS011;1693;49.602;11.046;2023-02-01T07:16:43;3.00;;;2.27;;
3359;SDS011;1693;49.602;11.046;2023-02-01T07:19:11;3.00;;;2.50;;
3359;SDS011;1693;49.602;11.046;2023-02-01T07:21:39;3.20;;;2.80;;
3359;SDS011;1693;49.602;11.046;2023-02-01T07:24:08;2.87;;;2.63;;
3359;SDS011;1693;49.602;11.046;2023-02-01T07:26:37;2.60;;;2.23;;
3359;SDS011;1693;49.602;11.046;2023-02-01T07:29:08;3.87;;;3.30;;
3359;SDS011;1693;49.602;11.046;2023-02-01T07:31:37;2.63;;;2.20;;
3359;SDS011;1693;49.602;11.046;2023-02-01T07:34:04;4.40;;;3.33;;
3359;SDS011;1693;49.602;11.046;2023-02-01T07:36:33;5.43;;;3.63;;
3359;SDS011;1693;49.602;11.046;2023-02-01T07:39:02;3.10;;;2.80;;
3359;SDS011;1693;49.602;11.046;2023-02-01T07:41:32;3.50;;;3.20;;
3359;SDS011;1693;49.602;11.046;2023-02-01T07:44:00;4.43;;;3.03;;
3359;SDS011;1693;49.602;11.046;2023-02-01T07:46:29;13.90;;;3.07;;
3359;SDS011;1693;49.602;11.046;2023-02-01T07:48:56;4.50;;;2.83;;
3359;SDS011;1693;49.602;11.046;2023-02-01T07:51:25;4.60;;;3.40;;
3359;SDS011;1693;49.602;11.046;2023-02-01T07:53:55;4.27;;;3.70;;
3359;SDS011;1693;49.602;11.046;2023-02-01T07:56:23;3.70;;;3.13;;
3359;SDS011;1693;49.602;11.046;2023-02-01T07:58:51;4.73;;;3.40;;
3359;SDS011;1693;49.602;11.046;2023-02-01T08:01:21;4.50;;;3.77;;
3359;SDS011;1693;49.602;11.046;2023-02-01T08:03:54;6.80;;;3.57;;
3359;SDS011;1693;49.602;11.046;2023-02-01T08:06:26;6.07;;;3.73;;
3359;SDS011;1693;49.602;11.046;2023-02-01T08:08:56;3.40;;;3.10;;
3359;SDS011;1693;49.602;11.046;2023-02-01T08:11:23;5.33;;;2.70;;
3359;SDS011;1693;49.602;11.046;2023-02-01T08:13:51;9.90;;;3.83;;
3359;SDS011;1693;49.602;11.046;2023-02-01T08:16:18;7.23;;;3.03;;
3359;SDS011;1693;49.602;11.046;2023-02-01T08:18:48;7.07;;;3.60;;
3359;SDS011;1693;49.602;11.046;2023-02-01T08:21:18;11.90;;;3.70;;
3359;SDS011;1693;49.602;11.046;2023-02-01T08:23:47;4.43;;;2.87;;
3359;SDS011;1693;49.602;11.046;2023-02-01T08:26:15;4.93;;;3.30;;
3359;SDS011;1693;49.602;11.046;2023-02-01T08:28:47;6.70;;;3.50;;
3359;SDS011;1693;49.602;11.046;2023-02-01T08:31:17;3.20;;;2.60;;
3359;SDS011;1693;49.602;11.046;2023-02-01T08:33:47;3.03;;;2.73;;
3359;SDS011;1693;49.602;11.046;2023-02-01T08:36:18;3.80;;;1.37;;
3359;SDS011;1693;49.602;11.046;2023-02-01T08:38:45;3.57;;;1.73;;
3359;SDS011;1693;49.602;11.046;2023-02-01T08:41:16;6.00;;;2.83;;
3359;SDS011;1693;49.602;11.046;2023-02-01T08:43:44;3.43;;;1.80;;
3359;SDS011;1693;49.602;11.046;2023-02-01T08:46:13;3.60;;;2.10;;
3359;SDS011;1693;49.602;11.046;2023-02-01T08:48:40;2.97;;;2.67;;
3359;SDS011;1693;49.602;11.046;2023-02-01T08:51:08;6.20;;;2.00;;
3359;SDS011;1693;49.602;11.046;2023-02-01T08:53:38;4.57;;;2.27;;
3359;SDS011;1693;49.602;11.046;2023-02-01T08:56:06;5.27;;;2.30;;
3359;SDS011;1693;49.602;11.046;2023-02-01T08:58:34;2.90;;;1.97;;
3359;SDS011;1693;49.602;11.046;2023-02-01T09:01:02;4.03;;;1.83;;
3359;SDS011;1693;49.602;11.046;2023-02-01T09:03:30;3.17;;;2.40;;
3359;SDS011;1693;49.602;11.046;2023-02-01T09:05:59;4.43;;;2.40;;
3359;SDS011;1693;49.602;11.046;2023-02-01T09:08:26;4.10;;;1.80;;
3359;SDS011;1693;49.602;11.046;2023-02-01T09:10:57;2.57;;;1.97;;
3359;SDS011;1693;49.602;11.046;2023-02-01T09:13:25;2.77;;;1.93;;
3359;SDS011;1693;49.602;11.046;2023-02-01T09:15:52;2.57;;;1.90;;
3359;SDS011;1693;49.602;11.046;2023-02-01T09:18:20;6.27;;;2.13;;
3359;SDS011;1693;49.602;11.046;2023-02-01T09:20:47;2.60;;;1.53;;
3359;SDS011;1693;49.602;11.046;2023-02-01T09:23:14;5.17;;;2.17;;
3359;SDS011;1693;49.602;11.046;2023-02-01T09:25:46;10.23;;;3.00;;
3359;SDS011;1693;49.602;11.046;2023-02-01T09:28:18;3.30;;;2.60;;
3359;SDS011;1693;49.602;11.046;2023-02-01T09:30:45;6.70;;;2.00;;
3359;SDS011;1693;49.602;11.046;2023-02-01T09:33:12;5.90;;;2.47;;
3359;SDS011;1693;49.602;11.046;2023-02-01T09:35:42;3.30;;;2.20;;
3359;SDS011;1693;49.602;11.046;2023-02-01T09:38:10;3.90;;;2.37;;
3359;SDS011;1693;49.602;11.046;2023-02-01T09:40:39;6.80;;;2.10;;
3359;SDS011;1693;49.602;11.046;2023-02-01T09:43:15;7.10;;;2.70;;
3359;SDS011;1693;49.602;11.046;2023-02-01T09:45:55;4.53;;;2.13;;
3359;SDS011;1693;49.602;11.046;2023-02-01T09:48:32;9.63;;;2.17;;
3359;SDS011;1693;49.602;11.046;2023-02-01T09:51:02;2.43;;;1.70;;
3359;SDS011;1693;49.602;11.046;2023-02-01T09:53:37;3.73;;;2.10;;
3359;SDS011;1693;49.602;11.046;2023-02-01T09:56:11;3.60;;;2.10;;
3359;SDS011;1693;49.602;11.046;2023-02-01T09:58:44;8.23;;;2.67;;
3359;SDS011;1693;49.602;11.046;2023-02-01T10:01:15;4.87;;;2.27;;
3359;SDS011;1693;49.602;11.046;2023-02-01T10:03:44;8.33;;;2.30;;
3359;SDS011;1693;49.602;11.046;2023-02-01T10:06:21;4.23;;;2.00;;
3359;SDS011;1693;49.602;11.046;2023-02-01T10:09:03;4.30;;;2.00;;
3359;SDS011;1693;49.602;11.046;2023-02-01T10:11:54;6.40;;;1.80;;
3359;SDS011;1693;49.602;11.046;2023-02-01T10:14:53;5.60;;;2.00;;
3359;SDS011;1693;49.602;11.046;2023-02-01T10:17:31;5.83;;;2.33;;
3359;SDS011;1693;49.602;11.046;2023-02-01T10:20:12;2.73;;;2.17;;
3359;SDS011;1693;49.602;11.046;2023-02-01T10:22:51;5.67;;;1.87;;
3359;SDS011;1693;49.602;11.046;2023-02-01T10:25:27;4.30;;;2.07;;
3359;SDS011;1693;49.602;11.046;2023-02-01T10:27:59;9.17;;;2.10;;
3359;SDS011;1693;49.602;11.046;2023-02-01T10:30:31;6.67;;;2.50;;
3359;SDS011;1693;49.602;11.046;2023-02-01T10:33:12;3.67;;;2.07;;
3359;SDS011;1693;49.602;11.046;2023-02-01T10:35:43;3.30;;;1.83;;
3359;SDS011;1693;49.602;11.046;2023-02-01T10:38:16;6.90;;;1.97;;
3359;SDS011;1693;49.602;11.046;2023-02-01T10:40:49;6.90;;;2.03;;
3359;SDS011;1693;49.602;11.046;2023-02-01T10:43:17;7.43;;;2.33;;
3359;SDS011;1693;49.602;11.046;2023-02-01T10:45:45;4.13;;;2.67;;
3359;SDS011;1693;49.602;11.046;2023-02-01T10:48:14;4.57;;;2.00;;
3359;SDS011;1693;49.602;11.046;2023-02-01T10:50:44;7.70;;;3.07;;
3359;SDS011;1693;49.602;11.046;2023-02-01T10:53:17;5.40;;;3.40;;
3359;SDS011;1693;49.602;11.046;2023-02-01T10:55:49;4.90;;;2.20;;
3359;SDS011;1693;49.602;11.046;2023-02-01T10:58:20;4.23;;;2.40;;
3359;SDS011;1693;49.602;11.046;2023-02-01T11:00:56;7.30;;;2.80;;
3359;SDS011;1693;49.602;11.046;2023-02-01T11:03:31;3.60;;;2.17;;
3359;SDS011;1693;49.602;11.046;2023-02-01T11:06:01;5.03;;;2.47;;
3359;SDS011;1693;49.602;11.046;2023-02-01T11:08:41;6.13;;;2.47;;
3359;SDS011;1693;49.602;11.046;2023-02-01T11:11:10;8.70;;;2.50;;
3359;SDS011;1693;49.602;11.046;2023-02-01T11:13:39;7.40;;;2.87;;
3359;SDS011;1693;49.602;11.046;2023-02-01T11:16:08;4.23;;;3.00;;
3359;SDS011;1693;49.602;11.046;2023-02-01T11:18:39;6.83;;;2.73;;
3359;SDS011;1693;49.602;11.046;2023-02-01T11:21:06;8.10;;;2.97;;
3359;SDS011;1693;49.602;11.046;2023-02-01T11:23:38;10.50;;;4.40;;
3359;SDS011;1693;49.602;11.046;2023-02-01T11:26:09;4.67;;;3.10;;
3359;SDS011;1693;49.602;11.046;2023-02-01T11:28:45;4.40;;;2.70;;
3359;SDS011;1693;49.602;11.046;2023-02-01T11:31:19;5.97;;;3.70;;
3359;SDS011;1693;49.602;11.046;2023-02-01T11:33:50;8.17;;;3.40;;
3359;SDS011;1693;49.602;11.046;2023-02-01T11:36:20;5.30;;;2.70;;
3359;SDS011;1693;49.602;11.046;2023-02-01T11:38:51;9.67;;;4.60;;
3359;SDS011;1693;49.602;11.046;2023-02-01T11:41:22;3.50;;;2.33;;
3359;SDS011;1693;49.602;11.046;2023-02-01T11:43:51;4.50;;;2.30;;
3359;SDS011;1693;49.602;11.046;2023-02-01T11:46:24;3.63;;;2.53;;
3359;SDS011;1693;49.602;11.046;2023-02-01T11:48:57;5.30;;;2.87;;
3359;SDS011;1693;49.602;11.046;2023-02-01T11:51:49;4.20;;;2.30;;
3359;SDS011;1693;49.602;11.046;2023-02-01T11:54:43;5.70;;;3.10;;
3359;SDS011;1693;49.602;11.046;2023-02-01T11:57:24;5.40;;;2.50;;
3359;SDS011;1693;49.602;11.046;2023-02-01T12:00:26;12.10;;;2.70;;
3359;SDS011;1693;49.602;11.046;2023-02-01T12:06:04;5.63;;;2.40;;
3359;SDS011;1693;49.602;11.046;2023-02-01T12:11:31;3.83;;;2.17;;
3359;SDS011;1693;49.602;11.046;2023-02-01T12:17:20;5.87;;;1.90;;
3359;SDS011;1693;49.602;11.046;2023-02-01T12:20:20;3.03;;;2.30;;
3359;SDS011;1693;49.602;11.046;2023-02-01T12:22:58;11.67;;;2.80;;
3359;SDS011;1693;49.602;11.046;2023-02-01T12:25:41;12.57;;;2.27;;
3359;SDS011;1693;49.602;11.046;2023-02-01T12:28:26;3.67;;;2.30;;
3359;SDS011;1693;49.602;11.046;2023-02-01T12:31:46;7.23;;;2.47;;
3359;SDS011;1693;49.602;11.046;2023-02-01T12:34:51;6.87;;;2.40;;
3359;SDS011;1693;49.602;11.046;2023-02-01T12:37:38;8.33;;;2.00;;
3359;SDS011;1693;49.602;11.046;2023-02-01T12:40:24;5.20;;;2.37;;
3359;SDS011;1693;49.602;11.046;2023-02-01T12:42:59;7.07;;;2.10;;
3359;SDS011;1693;49.602;11.046;2023-02-01T12:45:31;5.03;;;1.77;;
3359;SDS011;1693;49.602;11.046;2023-02-01T12:48:04;4.73;;;1.83;;
3359;SDS011;1693;49.602;11.046;2023-02-01T12:50:47;5.10;;;3.03;;
3359;SDS011;1693;49.602;11.046;2023-02-01T12:53:24;4.50;;;1.63;;
3359;SDS011;1693;49.602;11.046;2023-02-01T12:55:57;10.30;;;2.23;;
3359;SDS011;1693;49.602;11.046;2023-02-01T12:58:30;6.47;;;2.77;;
3359;SDS011;1693;49.602;11.046;2023-02-01T13:01:05;5.97;;;2.27;;
3359;SDS011;1693;49.602;11.046;2023-02-01T13:03:37;5.30;;;3.13;;
3359;SDS011;1693;49.602;11.046;2023-02-01T13:06:08;5.90;;;2.83;;
3359;SDS011;1693;49.602;11.046;2023-02-01T13:08:43;5.43;;;3.00;;
3359;SDS011;1693;49.602;11.046;2023-02-01T13:11:18;7.03;;;2.90;;
3359;SDS011;1693;49.602;11.046;2023-02-01T13:13:52;5.97;;;2.50;;
3359;SDS011;1693;49.602;11.046;2023-02-01T13:16:27;8.23;;;2.10;;
3359;SDS011;1693;49.602;11.046;2023-02-01T13:19:03;7.03;;;3.10;;
3359;SDS011;1693;49.602;11.046;2023-02-01T13:22:10;5.77;;;2.90;;
3359;SDS011;1693;49.602;11.046;2023-02-01T13:24:51;10.73;;;4.13;;
3359;SDS011;1693;49.602;11.046;2023-02-01T13:27:21;6.57;;;2.67;;
3359;SDS011;1693;49.602;11.046;2023-02-01T13:29:56;7.00;;;4.30;;
3359;SDS011;1693;49.602;11.046;2023-02-01T13:35:29;7.97;;;3.00;;
3359;SDS011;1693;49.602;11.046;2023-02-01T13:38:18;5.43;;;2.60;;
3359;SDS011;1693;49.602;11.046;2023-02-01T13:41:10;9.07;;;2.90;;
3359;SDS011;1693;49.602;11.046;2023-02-01T13:43:51;5.80;;;3.07;;
3359;SDS011;1693;49.602;11.046;2023-02-01T13:46:22;5.27;;;2.80;;
3359;SDS011;1693;49.602;11.046;2023-02-01T13:48:51;16.43;;;3.67;;
3359;SDS011;1693;49.602;11.046;2023-02-01T13:51:32;6.80;;;4.10;;
3359;SDS011;1693;49.602;11.046;2023-02-01T13:54:02;5.00;;;2.80;;
3359;SDS011;1693;49.602;11.046;2023-02-01T13:56:42;4.70;;;2.80;;
3359;SDS011;1693;49.602;11.046;2023-02-01T14:08:21;11.03;;;2.70;;
3359;SDS011;1693;49.602;11.046;2023-02-01T14:10:53;10.77;;;2.20;;
3359;SDS011;1693;49.602;11.046;2023-02-01T14:13:28;3.30;;;2.13;;
3359;SDS011;1693;49.602;11.046;2023-02-01T14:16:15;6.40;;;2.27;;
3359;SDS011;1693;49.602;11.046;2023-02-01T14:21:28;8.50;;;2.57;;
3359;SDS011;1693;49.602;11.046;2023-02-01T14:23:58;4.93;;;2.40;;
3359;SDS011;1693;49.602;11.046;2023-02-01T14:26:40;4.23;;;2.10;;
3359;SDS011;1693;49.602;11.046;2023-02-01T14:29:17;4.10;;;1.83;;
3359;SDS011;1693;49.602;11.046;2023-02-01T14:31:53;3.87;;;1.87;;
3359;SDS011;1693;49.602;11.046;2023-02-01T14:34:33;7.50;;;1.70;;
3359;SDS011;1693;49.602;11.046;2023-02-01T14:37:08;6.40;;;2.80;;
3359;SDS011;1693;49.602;11.046;2023-02-01T14:39:47;6.90;;;3.30;;
3359;SDS011;1693;49.602;11.046;2023-02-01T14:42:21;8.70;;;2.70;;
3359;SDS011;1693;49.602;11.046;2023-02-01T14:44:53;5.77;;;2.00;;
3359;SDS011;1693;49.602;11.046;2023-02-01T14:47:31;4.03;;;1.73;;
3359;SDS011;1693;49.602;11.046;2023-02-01T14:50:11;7.13;;;2.10;;
3359;SDS011;1693;49.602;11.046;2023-02-01T14:52:46;2.63;;;1.70;;
3359;SDS011;1693;49.602;11.046;2023-02-01T14:55:18;6.30;;;2.10;;
3359;SDS011;1693;49.602;11.046;2023-02-01T14:57:53;6.30;;;2.30;;
3359;SDS011;1693;49.602;11.046;2023-02-01T15:00:26;3.63;;;1.97;;
3359;SDS011;1693;49.602;11.046;2023-02-01T15:02:55;11.13;;;2.13;;
3359;SDS011;1693;49.602;11.046;2023-02-01T15:05:43;6.37;;;2.57;;
3359;SDS011;1693;49.602;11.046;2023-02-01T15:08:15;6.87;;;2.40;;
3359;SDS011;1693;49.602;11.046;2023-02-01T15:10:48;9.47;;;2.93;;
3359;SDS011;1693;49.602;11.046;2023-02-01T15:13:19;5.70;;;2.60;;
3359;SDS011;1693;49.602;11.046;2023-02-01T15:16:04;6.93;;;2.17;;
3359;SDS011;1693;49.602;11.046;2023-02-01T15:18:37;7.47;;;2.40;;
3359;SDS011;1693;49.602;11.046;2023-02-01T15:21:05;7.20;;;2.63;;
3359;SDS011;1693;49.602;11.046;2023-02-01T15:23:33;9.77;;;2.60;;
3359;SDS011;1693;49.602;11.046;2023-02-01T15:26:00;4.30;;;2.33;;
3359;SDS011;1693;49.602;11.046;2023-02-01T15:28:27;7.07;;;2.23;;
3359;SDS011;1693;49.602;11.046;2023-02-01T15:30:55;8.00;;;3.17;;
3359;SDS011;1693;49.602;11.046;2023-02-01T15:33:26;5.53;;;3.47;;
3359;SDS011;1693;49.602;11.046;2023-02-01T15:35:55;12.97;;;1.80;;
3359;SDS011;1693;49.602;11.046;2023-02-01T15:38:38;7.03;;;2.60;;
3359;SDS011;1693;49.602;11.046;2023-02-01T15:41:10;3.70;;;2.07;;
3359;SDS011;1693;49.602;11.046;2023-02-01T15:43:40;12.90;;;3.30;;
3359;SDS011;1693;49.602;11.046;2023-02-01T15:46:10;6.43;;;2.70;;
3359;SDS011;1693;49.602;11.046;2023-02-01T15:48:41;7.50;;;2.83;;
3359;SDS011;1693;49.602;11.046;2023-02-01T15:51:12;2.40;;;1.90;;
3359;SDS011;1693;49.602;11.046;2023-02-01T15:53:43;7.10;;;2.23;;
3359;SDS011;1693;49.602;11.046;2023-02-01T15:56:16;5.63;;;2.37;;
3359;SDS011;1693;49.602;11.046;2023-02-01T15:58:50;3.90;;;2.03;;
3359;SDS011;1693;49.602;11.046;2023-02-01T16:01:20;11.03;;;2.20;;